sensor_id;sensor_type;location;lat;lon;timestamp;pressure;altitude;pressure_sealevel;temperature;humidity
56174;BME280;42058;52.308;20.924;2022-08-01T00:01:14;100243.69;;;16.76;100.00
56174;BME280;42058;52.308;20.924;2022-08-01T00:03:40;100245.50;;;16.76;100.00
56174;BME280;42058;52.308;20.924;2022-08-01T00:06:07;100246.83;;;16.76;100.00
56174;BME280;42058;52.308;20.924;2022-08-01T00:08:33;100243.77;;;16.75;100.00
56174;BME280;42058;52.308;20.924;2022-08-01T00:10:59;100237.20;;;16.73;100.00
56174;BME280;42058;52.308;20.924;2022-08-01T00:13:25;100243.00;;;16.72;100.00
56174;BME280;42058;52.308;20.924;2022-08-01T00:15:51;100236.83;;;16.72;100.00
56174;BME280;42058;52.308;20.924;2022-08-01T00:18:17;100233.86;;;16.69;100.00
56174;BME280;42058;52.308;20.924;2022-08-01T00:20:43;100242.23;;;16.70;100.00
56174;BME280;42058;52.308;20.924;2022-08-01T00:23:09;100229.88;;;16.69;100.00
56174;BME280;42058;52.308;20.924;2022-08-01T00:25:36;100232.16;;;16.68;100.00
56174;BME280;42058;52.308;20.924;2022-08-01T00:28:02;100230.43;;;16.67;100.00
56174;BME280;42058;52.308;20.924;2022-08-01T00:30:30;100221.29;;;16.64;100.00
56174;BME280;42058;52.308;20.924;2022-08-01T00:32:56;100220.36;;;16.65;100.00
56174;BME280;42058;52.308;20.924;2022-08-01T00:35:22;100223.02;;;16.65;100.00
56174;BME280;42058;52.308;20.924;2022-08-01T00:37:49;100219.03;;;16.65;100.00
56174;BME280;42058;52.308;20.924;2022-08-01T00:40:15;100222.62;;;16.64;100.00
56174;BME280;42058;52.308;20.924;2022-08-01T00:42:41;100216.54;;;16.62;100.00
56174;BME280;42058;52.308;20.924;2022-08-01T00:45:08;100215.29;;;16.61;100.00
56174;BME280;42058;52.308;20.924;2022-08-01T00:47:34;100219.75;;;16.60;100.00
56174;BME280;42058;52.308;20.924;2022-08-01T00:50:00;100213.19;;;16.59;100.00
56174;BME280;42058;52.308;20.924;2022-08-01T00:52:30;100211.94;;;16.57;100.00
56174;BME280;42058;52.308;20.924;2022-08-01T00:54:57;100211.58;;;16.56;100.00
56174;BME280;42058;52.308;20.924;2022-08-01T00:57:23;100218.77;;;16.54;100.00
56174;BME280;42058;52.308;20.924;2022-08-01T00:59:49;100217.52;;;16.52;100.00
56174;BME280;42058;52.308;20.924;2022-08-01T01:02:16;100225.97;;;16.52;100.00
56174;BME280;42058;52.308;20.924;2022-08-01T01:04:43;100225.17;;;16.50;100.00
56174;BME280;42058;52.308;20.924;2022-08-01T01:07:17;100225.17;;;16.50;100.00
56174;BME280;42058;52.308;20.924;2022-08-01T01:10:00;100224.80;;;16.49;100.00
56174;BME280;42058;52.308;20.924;2022-08-01T01:12:50;100232.37;;;16.48;100.00
56174;BME280;42058;52.308;20.924;2022-08-01T01:20:43;100226.08;;;16.42;100.00
56174;BME280;42058;52.308;20.924;2022-08-01T01:23:40;100228.80;;;16.40;100.00
56174;BME280;42058;52.308;20.924;2022-08-01T01:29:21;100224.77;;;16.33;100.00
56174;BME280;42058;52.308;20.924;2022-08-01T01:35:05;100221.62;;;16.33;100.00
56174;BME280;42058;52.308;20.924;2022-08-01T01:37:31;100225.24;;;16.32;100.00
56174;BME280;42058;52.308;20.924;2022-08-01T01:39:59;100225.80;;;16.30;100.00
56174;BME280;42058;52.308;20.924;2022-08-01T01:42:29;100229.02;;;16.28;100.00
56174;BME280;42058;52.308;20.924;2022-08-01T01:44:57;100225.18;;;16.25;100.00
56174;BME280;42058;52.308;20.924;2022-08-01T01:47:24;100228.31;;;16.25;100.00
56174;BME280;42058;52.308;20.924;2022-08-01T01:49:53;100225.26;;;16.24;100.00
56174;BME280;42058;52.308;20.924;2022-08-01T01:52:21;100227.63;;;16.21;100.00
56174;BME280;42058;52.308;20.924;2022-08-01T01:54:51;100222.31;;;16.21;100.00
56174;BME280;42058;52.308;20.924;2022-08-01T01:57:18;100227.30;;;16.19;100.00
56174;BME280;42058;52.308;20.924;2022-08-01T01:59:46;100224.34;;;16.16;100.00
56174;BME280;42058;52.308;20.924;2022-08-01T02:02:14;100223.58;;;16.14;100.00
56174;BME280;42058;52.308;20.924;2022-08-01T02:04:44;100225.90;;;16.11;100.00
56174;BME280;42058;52.308;20.924;2022-08-01T02:07:22;100222.39;;;16.11;100.00
56174;BME280;42058;52.308;20.924;2022-08-01T02:09:46;100219.13;;;16.06;100.00
56174;BME280;42058;52.308;20.924;2022-08-01T02:12:13;100229.11;;;16.09;100.00
56174;BME280;42058;52.308;20.924;2022-08-01T02:14:41;100225.20;;;16.08;100.00
56174;BME280;42058;52.308;20.924;2022-08-01T02:17:10;100219.30;;;16.03;100.00
56174;BME280;42058;52.308;20.924;2022-08-01T02:19:38;100219.30;;;16.03;100.00
56174;BME280;42058;52.308;20.924;2022-08-01T02:22:10;100207.99;;;15.99;100.00
56174;BME280;42058;52.308;20.924;2022-08-01T02:25:00;100215.95;;;15.99;100.00
56174;BME280;42058;52.308;20.924;2022-08-01T02:27:43;100219.69;;;15.95;100.00
56174;BME280;42058;52.308;20.924;2022-08-01T02:30:13;100209.70;;;15.91;100.00
56174;BME280;42058;52.308;20.924;2022-08-01T02:32:46;100220.42;;;15.90;100.00
56174;BME280;42058;52.308;20.924;2022-08-01T02:35:27;100220.42;;;15.90;100.00
56174;BME280;42058;52.308;20.924;2022-08-01T02:37:56;100220.64;;;15.85;100.00
56174;BME280;42058;52.308;20.924;2022-08-01T02:40:24;100224.77;;;15.82;100.00
56174;BME280;42058;52.308;20.924;2022-08-01T02:42:56;100218.47;;;15.76;100.00
56174;BME280;42058;52.308;20.924;2022-08-01T02:45:26;100221.52;;;15.77;100.00
56174;BME280;42058;52.308;20.924;2022-08-01T02:47:59;100219.06;;;15.72;100.00
56174;BME280;42058;52.308;20.924;2022-08-01T02:50:28;100226.23;;;15.70;100.00
56174;BME280;42058;52.308;20.924;2022-08-01T02:52:57;100229.03;;;15.67;100.00
56174;BME280;42058;52.308;20.924;2022-08-01T02:55:24;100218.83;;;15.60;100.00
56174;BME280;42058;52.308;20.924;2022-08-01T02:57:53;100218.83;;;15.60;100.00
56174;BME280;42058;52.308;20.924;2022-08-01T03:00:22;100232.49;;;15.61;100.00
56174;BME280;42058;52.308;20.924;2022-08-01T03:02:51;100232.49;;;15.61;100.00
56174;BME280;42058;52.308;20.924;2022-08-01T03:05:20;100223.50;;;15.54;100.00
56174;BME280;42058;52.308;20.924;2022-08-01T03:07:47;100224.59;;;15.50;100.00
56174;BME280;42058;52.308;20.924;2022-08-01T03:10:16;100238.70;;;15.51;100.00
56174;BME280;42058;52.308;20.924;2022-08-01T03:12:44;100238.70;;;15.51;100.00
56174;BME280;42058;52.308;20.924;2022-08-01T03:15:12;100238.00;;;15.47;100.00
56174;BME280;42058;52.308;20.924;2022-08-01T03:17:40;100238.00;;;15.47;100.00
56174;BME280;42058;52.308;20.924;2022-08-01T03:26:15;100237.77;;;15.43;100.00
56174;BME280;42058;52.308;20.924;2022-08-01T03:28:44;100237.06;;;15.40;100.00
56174;BME280;42058;52.308;20.924;2022-08-01T03:31:13;100233.70;;;15.36;100.00
56174;BME280;42058;52.308;20.924;2022-08-01T03:33:40;100239.00;;;15.36;100.00
56174;BME280;42058;52.308;20.924;2022-08-01T03:36:09;100244.31;;;15.36;100.00
56174;BME280;42058;52.308;20.924;2022-08-01T03:38:37;100256.38;;;15.33;100.00
56174;BME280;42058;52.308;20.924;2022-08-01T03:41:11;100256.38;;;15.33;100.00
56174;BME280;42058;52.308;20.924;2022-08-01T03:43:42;100246.16;;;15.25;100.00
56174;BME280;42058;52.308;20.924;2022-08-01T03:46:17;100246.16;;;15.25;100.00
56174;BME280;42058;52.308;20.924;2022-08-01T03:48:47;100255.77;;;15.28;100.00
56174;BME280;42058;52.308;20.924;2022-08-01T03:51:15;100257.61;;;15.26;100.00
56174;BME280;42058;52.308;20.924;2022-08-01T03:53:45;100257.23;;;15.25;100.00
56174;BME280;42058;52.308;20.924;2022-08-01T03:56:12;100257.23;;;15.25;100.00
56174;BME280;42058;52.308;20.924;2022-08-01T03:58:43;100256.83;;;15.24;100.00
56174;BME280;42058;52.308;20.924;2022-08-01T04:01:10;100266.52;;;15.25;100.00
56174;BME280;42058;52.308;20.924;2022-08-01T04:03:37;100270.08;;;15.24;100.00
56174;BME280;42058;52.308;20.924;2022-08-01T04:06:04;100270.08;;;15.24;100.00
56174;BME280;42058;52.308;20.924;2022-08-01T04:08:37;100269.16;;;15.25;100.00
56174;BME280;42058;52.308;20.924;2022-08-01T04:11:04;100272.42;;;15.21;100.00
56174;BME280;42058;52.308;20.924;2022-08-01T04:13:31;100279.77;;;15.25;100.00
56174;BME280;42058;52.308;20.924;2022-08-01T04:15:58;100279.77;;;15.25;100.00
56174;BME280;42058;52.308;20.924;2022-08-01T04:18:25;100285.92;;;15.25;100.00
56174;BME280;42058;52.308;20.924;2022-08-01T04:20:52;100282.28;;;15.28;100.00
56174;BME280;42058;52.308;20.924;2022-08-01T04:23:20;100282.28;;;15.28;100.00
56174;BME280;42058;52.308;20.924;2022-08-01T04:25:50;100278.61;;;15.30;100.00
56174;BME280;42058;52.308;20.924;2022-08-01T04:28:16;100275.00;;;15.31;100.00
56174;BME280;42058;52.308;20.924;2022-08-01T04:30:45;100278.84;;;15.34;100.00
56174;BME280;42058;52.308;20.924;2022-08-01T04:33:14;100280.58;;;15.35;100.00
56174;BME280;42058;52.308;20.924;2022-08-01T04:35:46;100280.58;;;15.35;100.00
56174;BME280;42058;52.308;20.924;2022-08-01T04:38:19;100278.30;;;15.36;100.00
56174;BME280;42058;52.308;20.924;2022-08-01T04:40:48;100290.39;;;15.42;100.00
56174;BME280;42058;52.308;20.924;2022-08-01T04:43:16;100290.39;;;15.42;100.00
56174;BME280;42058;52.308;20.924;2022-08-01T04:45:43;100273.06;;;15.35;100.00
56174;BME280;42058;52.308;20.924;2022-08-01T04:48:10;100279.89;;;15.41;100.00
56174;BME280;42058;52.308;20.924;2022-08-01T04:50:38;100285.42;;;15.45;100.00
56174;BME280;42058;52.308;20.924;2022-08-01T04:53:14;100292.84;;;15.47;100.00
56174;BME280;42058;52.308;20.924;2022-08-01T04:55:43;100292.84;;;15.47;100.00
56174;BME280;42058;52.308;20.924;2022-08-01T04:58:10;100293.69;;;15.47;100.00
56174;BME280;42058;52.308;20.924;2022-08-01T05:00:39;100289.64;;;15.49;100.00
56174;BME280;42058;52.308;20.924;2022-08-01T05:03:05;100298.30;;;15.52;100.00
56174;BME280;42058;52.308;20.924;2022-08-01T05:05:31;100294.25;;;15.54;100.00
56174;BME280;42058;52.308;20.924;2022-08-01T05:07:57;100297.75;;;15.54;100.00
56174;BME280;42058;52.308;20.924;2022-08-01T05:10:24;100304.02;;;15.53;100.00
56174;BME280;42058;52.308;20.924;2022-08-01T05:12:51;100304.02;;;15.53;100.00
56174;BME280;42058;52.308;20.924;2022-08-01T05:15:17;100297.38;;;15.53;100.00
56174;BME280;42058;52.308;20.924;2022-08-01T05:17:44;100299.62;;;15.52;100.00
56174;BME280;42058;52.308;20.924;2022-08-01T05:20:11;100300.11;;;15.52;100.00
56174;BME280;42058;52.308;20.924;2022-08-01T05:22:38;100303.20;;;15.51;100.00
56174;BME280;42058;52.308;20.924;2022-08-01T05:25:05;100301.19;;;15.56;100.00
56174;BME280;42058;52.308;20.924;2022-08-01T05:27:32;100291.60;;;15.54;100.00
56174;BME280;42058;52.308;20.924;2022-08-01T05:29:58;100298.80;;;15.61;100.00
56174;BME280;42058;52.308;20.924;2022-08-01T05:32:24;100312.93;;;15.70;100.00
56174;BME280;42058;52.308;20.924;2022-08-01T05:34:50;100315.30;;;15.76;100.00
56174;BME280;42058;52.308;20.924;2022-08-01T05:37:16;100315.30;;;15.76;100.00
56174;BME280;42058;52.308;20.924;2022-08-01T05:39:44;100313.28;;;15.81;100.00
56174;BME280;42058;52.308;20.924;2022-08-01T05:42:12;100316.94;;;15.87;100.00
56174;BME280;42058;52.308;20.924;2022-08-01T05:44:40;100318.49;;;15.91;100.00
56174;BME280;42058;52.308;20.924;2022-08-01T05:47:06;100323.19;;;16.04;100.00
56174;BME280;42058;52.308;20.924;2022-08-01T05:49:32;100323.19;;;16.04;100.00
56174;BME280;42058;52.308;20.924;2022-08-01T05:51:58;100320.91;;;16.13;100.00
56174;BME280;42058;52.308;20.924;2022-08-01T05:54:27;100323.97;;;16.23;100.00
56174;BME280;42058;52.308;20.924;2022-08-01T05:56:53;100313.23;;;16.33;100.00
56174;BME280;42058;52.308;20.924;2022-08-01T05:59:20;100326.98;;;16.42;100.00
56174;BME280;42058;52.308;20.924;2022-08-01T06:01:46;100325.17;;;16.51;100.00
56174;BME280;42058;52.308;20.924;2022-08-01T06:04:12;100322.03;;;16.60;100.00
56174;BME280;42058;52.308;20.924;2022-08-01T06:06:40;100327.80;;;16.68;100.00
56174;BME280;42058;52.308;20.924;2022-08-01T06:09:06;100323.14;;;16.81;100.00
56174;BME280;42058;52.308;20.924;2022-08-01T06:11:32;100323.47;;;16.92;100.00
56174;BME280;42058;52.308;20.924;2022-08-01T06:13:58;100322.77;;;17.04;100.00
56174;BME280;42058;52.308;20.924;2022-08-01T06:16:25;100326.56;;;17.16;100.00
56174;BME280;42058;52.308;20.924;2022-08-01T06:18:51;100308.97;;;17.29;100.00
56174;BME280;42058;52.308;20.924;2022-08-01T06:21:17;100314.48;;;17.49;100.00
56174;BME280;42058;52.308;20.924;2022-08-01T06:23:43;100314.48;;;17.49;100.00
56174;BME280;42058;52.308;20.924;2022-08-01T06:26:12;100315.89;;;17.64;100.00
56174;BME280;42058;52.308;20.924;2022-08-01T06:28:41;100322.97;;;17.79;100.00
56174;BME280;42058;52.308;20.924;2022-08-01T06:31:08;100319.45;;;17.95;100.00
56174;BME280;42058;52.308;20.924;2022-08-01T06:33:35;100304.85;;;18.09;100.00
56174;BME280;42058;52.308;20.924;2022-08-01T06:36:02;100318.39;;;18.28;100.00
56174;BME280;42058;52.308;20.924;2022-08-01T06:38:28;100324.02;;;18.44;100.00
56174;BME280;42058;52.308;20.924;2022-08-01T06:40:54;100324.52;;;18.58;100.00
56174;BME280;42058;52.308;20.924;2022-08-01T06:43:24;100326.97;;;18.76;100.00
56174;BME280;42058;52.308;20.924;2022-08-01T06:45:50;100336.73;;;18.91;100.00
56174;BME280;42058;52.308;20.924;2022-08-01T06:48:16;100328.72;;;19.06;100.00
56174;BME280;42058;52.308;20.924;2022-08-01T06:53:50;100323.03;;;19.32;100.00
56174;BME280;42058;52.308;20.924;2022-08-01T06:56:16;100326.02;;;19.47;100.00
56174;BME280;42058;52.308;20.924;2022-08-01T07:01:42;100325.36;;;19.71;100.00
56174;BME280;42058;52.308;20.924;2022-08-01T07:04:11;100326.38;;;19.90;100.00
56174;BME280;42058;52.308;20.924;2022-08-01T07:06:39;100321.81;;;20.05;100.00
56174;BME280;42058;52.308;20.924;2022-08-01T07:09:05;100319.52;;;20.19;100.00
56174;BME280;42058;52.308;20.924;2022-08-01T07:11:33;100320.41;;;20.32;100.00
56174;BME280;42058;52.308;20.924;2022-08-01T07:16:57;100315.75;;;20.54;100.00
56174;BME280;42058;52.308;20.924;2022-08-01T07:22:33;100312.75;;;20.84;100.00
56174;BME280;42058;52.308;20.924;2022-08-01T07:24:59;100313.14;;;21.04;100.00
56174;BME280;42058;52.308;20.924;2022-08-01T07:27:25;100317.40;;;21.19;100.00
56174;BME280;42058;52.308;20.924;2022-08-01T07:29:51;100315.14;;;21.31;100.00
56174;BME280;42058;52.308;20.924;2022-08-01T07:32:17;100310.65;;;21.45;100.00
56174;BME280;42058;52.308;20.924;2022-08-01T07:34:43;100309.49;;;21.60;100.00
56174;BME280;42058;52.308;20.924;2022-08-01T07:37:10;100301.50;;;21.72;100.00
56174;BME280;42058;52.308;20.924;2022-08-01T07:39:36;100301.54;;;21.83;100.00
56174;BME280;42058;52.308;20.924;2022-08-01T07:42:02;100303.30;;;21.95;100.00
56174;BME280;42058;52.308;20.924;2022-08-01T07:44:28;100301.02;;;22.07;100.00
56174;BME280;42058;52.308;20.924;2022-08-01T07:46:54;100304.45;;;22.21;100.00
56174;BME280;42058;52.308;20.924;2022-08-01T07:49:21;100298.67;;;22.33;100.00
56174;BME280;42058;52.308;20.924;2022-08-01T07:51:47;100300.98;;;22.43;100.00
56174;BME280;42058;52.308;20.924;2022-08-01T07:54:13;100306.23;;;22.56;100.00
56174;BME280;42058;52.308;20.924;2022-08-01T07:56:39;100300.52;;;22.66;100.00
56174;BME280;42058;52.308;20.924;2022-08-01T07:59:05;100301.63;;;22.80;100.00
56174;BME280;42058;52.308;20.924;2022-08-01T08:01:32;100301.11;;;22.92;100.00
56174;BME280;42058;52.308;20.924;2022-08-01T08:03:58;100297.22;;;23.02;100.00
56174;BME280;42058;52.308;20.924;2022-08-01T08:06:24;100293.82;;;23.11;100.00
56174;BME280;42058;52.308;20.924;2022-08-01T08:08:50;100288.92;;;23.22;100.00
56174;BME280;42058;52.308;20.924;2022-08-01T08:11:16;100300.24;;;23.31;100.00
56174;BME280;42058;52.308;20.924;2022-08-01T08:13:42;100300.70;;;23.42;100.00
56174;BME280;42058;52.308;20.924;2022-08-01T08:16:08;100297.50;;;23.48;100.00
56174;BME280;42058;52.308;20.924;2022-08-01T08:18:34;100307.23;;;23.60;100.00
56174;BME280;42058;52.308;20.924;2022-08-01T08:21:01;100301.69;;;23.73;100.00
56174;BME280;42058;52.308;20.924;2022-08-01T08:23:27;100305.19;;;23.85;100.00
56174;BME280;42058;52.308;20.924;2022-08-01T08:26:11;100307.72;;;23.92;100.00
56174;BME280;42058;52.308;20.924;2022-08-01T08:28:38;100301.56;;;24.02;100.00
56174;BME280;42058;52.308;20.924;2022-08-01T08:31:04;100307.87;;;24.12;100.00
56174;BME280;42058;52.308;20.924;2022-08-01T08:33:32;100314.30;;;24.21;100.00
56174;BME280;42058;52.308;20.924;2022-08-01T08:35:58;100308.76;;;24.28;100.00
56174;BME280;42058;52.308;20.924;2022-08-01T08:38:26;100304.77;;;24.37;97.30
56174;BME280;42058;52.308;20.924;2022-08-01T08:40:53;100317.05;;;24.46;96.16
56174;BME280;42058;52.308;20.924;2022-08-01T08:43:19;100309.21;;;24.54;95.39
56174;BME280;42058;52.308;20.924;2022-08-01T08:45:46;100311.35;;;24.60;94.49
56174;BME280;42058;52.308;20.924;2022-08-01T08:48:13;100316.55;;;24.67;93.58
56174;BME280;42058;52.308;20.924;2022-08-01T08:50:41;100315.03;;;24.74;92.67
56174;BME280;42058;52.308;20.924;2022-08-01T08:53:10;100317.55;;;24.82;92.25
56174;BME280;42058;52.308;20.924;2022-08-01T08:55:40;100324.09;;;24.89;90.88
56174;BME280;42058;52.308;20.924;2022-08-01T08:58:14;100324.28;;;24.97;91.55
56174;BME280;42058;52.308;20.924;2022-08-01T09:00:43;100329.81;;;25.05;91.33
56174;BME280;42058;52.308;20.924;2022-08-01T09:03:09;100330.97;;;25.12;90.85
56174;BME280;42058;52.308;20.924;2022-08-01T09:05:36;100321.63;;;25.17;89.66
56174;BME280;42058;52.308;20.924;2022-08-01T09:08:07;100321.83;;;25.25;89.54
56174;BME280;42058;52.308;20.924;2022-08-01T09:10:34;100328.20;;;25.33;89.12
56174;BME280;42058;52.308;20.924;2022-08-01T09:13:11;100329.35;;;25.41;87.10
56174;BME280;42058;52.308;20.924;2022-08-01T09:18:34;100328.11;;;25.55;84.01
56174;BME280;42058;52.308;20.924;2022-08-01T09:21:11;100325.85;;;25.60;84.29
56174;BME280;42058;52.308;20.924;2022-08-01T09:23:44;100328.61;;;25.64;82.66
56174;BME280;42058;52.308;20.924;2022-08-01T09:26:14;100327.33;;;25.68;83.21
56174;BME280;42058;52.308;20.924;2022-08-01T09:28:42;100330.46;;;25.73;82.42
56174;BME280;42058;52.308;20.924;2022-08-01T09:31:14;100340.33;;;25.78;82.65
56174;BME280;42058;52.308;20.924;2022-08-01T09:33:58;100341.41;;;25.81;80.31
56174;BME280;42058;52.308;20.924;2022-08-01T09:36:24;100346.58;;;25.88;80.91
56174;BME280;42058;52.308;20.924;2022-08-01T09:38:53;100342.23;;;25.92;79.71
56174;BME280;42058;52.308;20.924;2022-08-01T09:41:30;100342.83;;;25.95;79.25
56174;BME280;42058;52.308;20.924;2022-08-01T09:43:57;100336.02;;;26.01;79.42
56174;BME280;42058;52.308;20.924;2022-08-01T09:46:24;100327.01;;;26.06;77.87
56174;BME280;42058;52.308;20.924;2022-08-01T09:49:05;100325.10;;;26.12;78.46
56174;BME280;42058;52.308;20.924;2022-08-01T09:51:34;100334.23;;;26.15;78.78
56174;BME280;42058;52.308;20.924;2022-08-01T09:54:03;100337.36;;;26.20;78.12
56174;BME280;42058;52.308;20.924;2022-08-01T09:56:39;100328.28;;;26.21;75.90
56174;BME280;42058;52.308;20.924;2022-08-01T09:59:08;100331.82;;;26.22;75.35
56174;BME280;42058;52.308;20.924;2022-08-01T10:01:46;100329.63;;;26.21;74.97
56174;BME280;42058;52.308;20.924;2022-08-01T10:04:18;100329.63;;;26.21;75.54
56174;BME280;42058;52.308;20.924;2022-08-01T10:06:48;100328.28;;;26.21;75.82
56174;BME280;42058;52.308;20.924;2022-08-01T10:09:28;100329.83;;;26.24;75.50
56174;BME280;42058;52.308;20.924;2022-08-01T10:11:56;100331.69;;;26.23;74.22
56174;BME280;42058;52.308;20.924;2022-08-01T10:14:24;100332.02;;;26.24;74.72
56174;BME280;42058;52.308;20.924;2022-08-01T10:16:54;100331.87;;;26.26;74.54
56174;BME280;42058;52.308;20.924;2022-08-01T10:19:26;100333.78;;;26.30;73.85
56174;BME280;42058;52.308;20.924;2022-08-01T10:21:54;100331.94;;;26.30;74.00
56174;BME280;42058;52.308;20.924;2022-08-01T10:24:23;100327.05;;;26.30;73.50
56174;BME280;42058;52.308;20.924;2022-08-01T10:27:06;100328.06;;;26.28;73.23
56174;BME280;42058;52.308;20.924;2022-08-01T10:30:06;100327.19;;;26.28;74.58
56174;BME280;42058;52.308;20.924;2022-08-01T10:32:28;100324.48;;;26.28;74.75
56174;BME280;42058;52.308;20.924;2022-08-01T10:35:01;100324.16;;;26.27;74.35
56174;BME280;42058;52.308;20.924;2022-08-01T10:37:38;100314.15;;;26.23;72.38
56174;BME280;42058;52.308;20.924;2022-08-01T10:40:11;100313.92;;;26.21;70.59
56174;BME280;42058;52.308;20.924;2022-08-01T10:42:45;100328.75;;;26.21;72.85
56174;BME280;42058;52.308;20.924;2022-08-01T10:45:17;100323.03;;;26.20;73.31
56174;BME280;42058;52.308;20.924;2022-08-01T10:47:53;100330.75;;;26.19;73.58
56174;BME280;42058;52.308;20.924;2022-08-01T10:50:31;100326.14;;;26.15;70.86
56174;BME280;42058;52.308;20.924;2022-08-01T10:58:32;100325.33;;;26.05;70.44
56174;BME280;42058;52.308;20.924;2022-08-01T11:01:25;100320.71;;;26.01;71.57
56174;BME280;42058;52.308;20.924;2022-08-01T11:04:10;100320.34;;;26.00;70.58
56174;BME280;42058;52.308;20.924;2022-08-01T11:09:40;100312.98;;;25.93;74.35
56174;BME280;42058;52.308;20.924;2022-08-01T11:12:15;100315.73;;;25.97;74.69
56174;BME280;42058;52.308;20.924;2022-08-01T11:17:37;100314.39;;;25.97;72.96
56174;BME280;42058;52.308;20.924;2022-08-01T11:20:12;100312.34;;;25.95;73.70
56174;BME280;42058;52.308;20.924;2022-08-01T11:30:54;100313.22;;;25.89;75.62
56174;BME280;42058;52.308;20.924;2022-08-01T11:36:16;100313.22;;;25.89;72.11
56174;BME280;42058;52.308;20.924;2022-08-01T11:41:30;100311.63;;;25.93;72.42
56174;BME280;42058;52.308;20.924;2022-08-01T11:44:19;100313.31;;;25.94;73.15
56174;BME280;42058;52.308;20.924;2022-08-01T11:52:16;100318.86;;;26.02;73.79
56174;BME280;42058;52.308;20.924;2022-08-01T11:54:53;100313.33;;;26.03;74.19
56174;BME280;42058;52.308;20.924;2022-08-01T11:57:29;100309.84;;;26.07;74.84
56174;BME280;42058;52.308;20.924;2022-08-01T11:59:59;100312.23;;;26.10;73.75
56174;BME280;42058;52.308;20.924;2022-08-01T12:02:27;100306.62;;;26.17;74.60
56174;BME280;42058;52.308;20.924;2022-08-01T12:05:04;100309.09;;;26.24;74.48
56174;BME280;42058;52.308;20.924;2022-08-01T12:07:41;100308.53;;;26.31;74.71
56174;BME280;42058;52.308;20.924;2022-08-01T12:10:09;100310.34;;;26.40;73.64
56174;BME280;42058;52.308;20.924;2022-08-01T12:13:03;100313.70;;;26.52;75.21
56174;BME280;42058;52.308;20.924;2022-08-01T12:15:40;100317.41;;;26.60;74.13
56174;BME280;42058;52.308;20.924;2022-08-01T12:18:09;100316.72;;;26.72;74.69
56174;BME280;42058;52.308;20.924;2022-08-01T12:20:39;100314.69;;;26.84;73.64
56174;BME280;42058;52.308;20.924;2022-08-01T12:23:11;100311.09;;;26.93;73.06
56174;BME280;42058;52.308;20.924;2022-08-01T12:25:39;100314.24;;;27.02;71.86
56174;BME280;42058;52.308;20.924;2022-08-01T12:28:10;100307.94;;;27.12;72.19
56174;BME280;42058;52.308;20.924;2022-08-01T12:30:42;100306.33;;;27.19;71.28
56174;BME280;42058;52.308;20.924;2022-08-01T12:33:16;100309.77;;;27.25;69.84
56174;BME280;42058;52.308;20.924;2022-08-01T12:35:49;100307.86;;;27.31;70.54
56174;BME280;42058;52.308;20.924;2022-08-01T12:38:21;100312.13;;;27.38;69.67
56174;BME280;42058;52.308;20.924;2022-08-01T12:40:54;100308.51;;;27.47;70.56
56174;BME280;42058;52.308;20.924;2022-08-01T12:43:22;100303.89;;;27.57;70.25
56174;BME280;42058;52.308;20.924;2022-08-01T12:45:52;100300.77;;;27.66;68.03
56174;BME280;42058;52.308;20.924;2022-08-01T12:48:20;100290.02;;;27.74;65.02
56174;BME280;42058;52.308;20.924;2022-08-01T12:50:48;100290.25;;;27.81;64.27
56174;BME280;42058;52.308;20.924;2022-08-01T12:53:16;100294.19;;;27.87;66.75
56174;BME280;42058;52.308;20.924;2022-08-01T12:55:54;100306.13;;;27.98;67.66
56174;BME280;42058;52.308;20.924;2022-08-01T12:58:15;100300.98;;;28.09;65.98
56174;BME280;42058;52.308;20.924;2022-08-01T13:00:44;100295.80;;;28.15;64.34
56174;BME280;42058;52.308;20.924;2022-08-01T13:03:20;100296.50;;;28.22;62.74
56174;BME280;42058;52.308;20.924;2022-08-01T13:05:52;100296.22;;;28.29;62.83
56174;BME280;42058;52.308;20.924;2022-08-01T13:08:33;100292.23;;;28.37;63.37
56174;BME280;42058;52.308;20.924;2022-08-01T13:11:07;100289.23;;;28.44;61.79
56174;BME280;42058;52.308;20.924;2022-08-01T13:13:41;100286.27;;;28.55;61.48
56174;BME280;42058;52.308;20.924;2022-08-01T13:16:09;100287.33;;;28.63;60.71
56174;BME280;42058;52.308;20.924;2022-08-01T13:18:36;100290.56;;;28.66;60.55
56174;BME280;42058;52.308;20.924;2022-08-01T13:21:14;100286.52;;;28.74;60.18
56174;BME280;42058;52.308;20.924;2022-08-01T13:23:59;100287.41;;;28.83;60.40
56174;BME280;42058;52.308;20.924;2022-08-01T13:26:57;100295.23;;;28.90;58.93
56174;BME280;42058;52.308;20.924;2022-08-01T13:29:31;100280.86;;;28.98;58.89
56174;BME280;42058;52.308;20.924;2022-08-01T13:32:18;100291.58;;;29.08;58.54
56174;BME280;42058;52.308;20.924;2022-08-01T13:34:46;100279.23;;;29.13;58.27
56174;BME280;42058;52.308;20.924;2022-08-01T13:37:13;100277.75;;;29.19;57.61
56174;BME280;42058;52.308;20.924;2022-08-01T13:39:43;100285.20;;;29.21;57.37
56174;BME280;42058;52.308;20.924;2022-08-01T13:42:14;100289.43;;;29.24;56.24
56174;BME280;42058;52.308;20.924;2022-08-01T13:44:42;100285.05;;;29.27;54.93
56174;BME280;42058;52.308;20.924;2022-08-01T13:47:12;100284.53;;;29.27;54.53
56174;BME280;42058;52.308;20.924;2022-08-01T13:49:38;100293.85;;;29.29;54.36